sensor_id;sensor_type;location;lat;lon;timestamp;P1;durP1;ratioP1;P2;durP2;ratioP2
56329;SDS011;42236;48.058;10.632;2023-02-23T00:01:15;15.03;;;9.63;;
56329;SDS011;42236;48.058;10.632;2023-02-23T00:04:12;15.40;;;9.60;;
56329;SDS011;42236;48.058;10.632;2023-02-23T00:06:57;15.17;;;9.97;;
56329;SDS011;42236;48.058;10.632;2023-02-23T00:09:43;15.53;;;9.40;;
56329;SDS011;42236;48.058;10.632;2023-02-23T00:12:49;15.80;;;10.07;;
56329;SDS011;42236;48.058;10.632;2023-02-23T00:15:36;14.83;;;9.50;;
56329;SDS011;42236;48.058;10.632;2023-02-23T00:18:25;15.10;;;9.87;;
56329;SDS011;42236;48.058;10.632;2023-02-23T00:21:17;18.13;;;9.63;;
56329;SDS011;42236;48.058;10.632;2023-02-23T00:24:11;16.20;;;9.67;;
56329;SDS011;42236;48.058;10.632;2023-02-23T00:26:59;14.23;;;9.57;;
56329;SDS011;42236;48.058;10.632;2023-02-23T00:29:50;17.07;;;10.10;;
56329;SDS011;42236;48.058;10.632;2023-02-23T00:32:39;16.73;;;10.70;;
56329;SDS011;42236;48.058;10.632;2023-02-23T00:35:31;16.50;;;10.20;;
56329;SDS011;42236;48.058;10.632;2023-02-23T00:38:17;13.27;;;9.50;;
56329;SDS011;42236;48.058;10.632;2023-02-23T00:41:07;19.13;;;10.20;;
56329;SDS011;42236;48.058;10.632;2023-02-23T00:43:55;15.33;;;9.67;;
56329;SDS011;42236;48.058;10.632;2023-02-23T00:46:42;15.97;;;9.27;;
56329;SDS011;42236;48.058;10.632;2023-02-23T00:49:29;14.97;;;9.90;;
56329;SDS011;42236;48.058;10.632;2023-02-23T00:52:15;16.83;;;10.03;;
56329;SDS011;42236;48.058;10.632;2023-02-23T00:55:00;15.30;;;9.73;;
56329;SDS011;42236;48.058;10.632;2023-02-23T00:57:49;18.33;;;9.80;;
56329;SDS011;42236;48.058;10.632;2023-02-23T01:00:35;15.60;;;10.37;;
56329;SDS011;42236;48.058;10.632;2023-02-23T01:03:26;16.47;;;10.30;;
56329;SDS011;42236;48.058;10.632;2023-02-23T01:06:14;13.27;;;9.87;;
56329;SDS011;42236;48.058;10.632;2023-02-23T01:09:14;17.67;;;10.77;;
56329;SDS011;42236;48.058;10.632;2023-02-23T01:12:12;15.97;;;10.63;;
56329;SDS011;42236;48.058;10.632;2023-02-23T01:15:03;18.07;;;10.73;;
56329;SDS011;42236;48.058;10.632;2023-02-23T01:18:01;16.60;;;9.93;;
56329;SDS011;42236;48.058;10.632;2023-02-23T01:20:47;14.47;;;9.73;;
56329;SDS011;42236;48.058;10.632;2023-02-23T01:23:39;15.93;;;9.87;;
56329;SDS011;42236;48.058;10.632;2023-02-23T01:26:33;17.80;;;10.37;;
56329;SDS011;42236;48.058;10.632;2023-02-23T01:29:21;17.70;;;10.00;;
56329;SDS011;42236;48.058;10.632;2023-02-23T01:32:12;16.53;;;10.70;;
56329;SDS011;42236;48.058;10.632;2023-02-23T01:35:06;16.83;;;9.67;;
56329;SDS011;42236;48.058;10.632;2023-02-23T01:37:58;15.73;;;11.20;;
56329;SDS011;42236;48.058;10.632;2023-02-23T01:40:49;14.10;;;10.13;;
56329;SDS011;42236;48.058;10.632;2023-02-23T01:43:52;16.87;;;10.73;;
56329;SDS011;42236;48.058;10.632;2023-02-23T01:46:47;17.13;;;10.57;;
56329;SDS011;42236;48.058;10.632;2023-02-23T01:49:34;14.83;;;10.63;;
56329;SDS011;42236;48.058;10.632;2023-02-23T01:52:24;15.07;;;9.90;;
56329;SDS011;42236;48.058;10.632;2023-02-23T01:55:21;15.27;;;9.27;;
56329;SDS011;42236;48.058;10.632;2023-02-23T01:58:10;19.03;;;10.37;;
56329;SDS011;42236;48.058;10.632;2023-02-23T02:01:10;15.47;;;10.20;;
56329;SDS011;42236;48.058;10.632;2023-02-23T02:04:00;21.50;;;10.57;;
56329;SDS011;42236;48.058;10.632;2023-02-23T02:06:53;16.20;;;10.57;;
56329;SDS011;42236;48.058;10.632;2023-02-23T02:09:42;16.57;;;10.00;;
56329;SDS011;42236;48.058;10.632;2023-02-23T02:12:53;15.87;;;9.33;;
56329;SDS011;42236;48.058;10.632;2023-02-23T02:19:17;15.80;;;10.03;;
56329;SDS011;42236;48.058;10.632;2023-02-23T02:26:02;18.20;;;10.70;;
56329;SDS011;42236;48.058;10.632;2023-02-23T02:41:19;14.83;;;9.37;;
56329;SDS011;42236;48.058;10.632;2023-02-23T02:44:14;16.03;;;10.07;;
56329;SDS011;42236;48.058;10.632;2023-02-23T02:47:16;14.27;;;9.30;;
56329;SDS011;42236;48.058;10.632;2023-02-23T02:50:11;14.97;;;9.27;;
56329;SDS011;42236;48.058;10.632;2023-02-23T02:53:06;13.20;;;9.53;;
56329;SDS011;42236;48.058;10.632;2023-02-23T02:55:54;15.20;;;9.67;;
56329;SDS011;42236;48.058;10.632;2023-02-23T02:58:51;18.53;;;10.63;;
56329;SDS011;42236;48.058;10.632;2023-02-23T03:01:38;16.30;;;10.57;;
56329;SDS011;42236;48.058;10.632;2023-02-23T03:04:42;20.37;;;10.93;;
56329;SDS011;42236;48.058;10.632;2023-02-23T03:11:15;19.40;;;10.60;;
56329;SDS011;42236;48.058;10.632;2023-02-23T03:14:27;16.43;;;11.43;;
56329;SDS011;42236;48.058;10.632;2023-02-23T03:25:40;20.90;;;11.43;;
56329;SDS011;42236;48.058;10.632;2023-02-23T03:28:29;15.50;;;10.10;;
56329;SDS011;42236;48.058;10.632;2023-02-23T03:35:07;14.87;;;9.60;;
56329;SDS011;42236;48.058;10.632;2023-02-23T03:38:20;16.33;;;10.03;;
56329;SDS011;42236;48.058;10.632;2023-02-23T03:41:35;16.53;;;9.97;;
56329;SDS011;42236;48.058;10.632;2023-02-23T03:44:44;16.90;;;8.63;;
56329;SDS011;42236;48.058;10.632;2023-02-23T03:47:51;13.50;;;8.70;;
56329;SDS011;42236;48.058;10.632;2023-02-23T03:51:00;15.37;;;10.23;;
56329;SDS011;42236;48.058;10.632;2023-02-23T03:54:13;17.87;;;10.30;;
56329;SDS011;42236;48.058;10.632;2023-02-23T03:57:27;18.97;;;9.70;;
56329;SDS011;42236;48.058;10.632;2023-02-23T04:00:40;15.63;;;9.30;;
56329;SDS011;42236;48.058;10.632;2023-02-23T04:03:49;14.07;;;9.63;;
56329;SDS011;42236;48.058;10.632;2023-02-23T04:06:56;17.70;;;10.27;;
56329;SDS011;42236;48.058;10.632;2023-02-23T04:10:04;13.37;;;8.83;;
56329;SDS011;42236;48.058;10.632;2023-02-23T04:13:15;17.60;;;10.47;;
56329;SDS011;42236;48.058;10.632;2023-02-23T04:16:13;13.37;;;9.57;;
56329;SDS011;42236;48.058;10.632;2023-02-23T04:18:59;16.63;;;10.17;;
56329;SDS011;42236;48.058;10.632;2023-02-23T04:21:48;18.60;;;9.57;;
56329;SDS011;42236;48.058;10.632;2023-02-23T04:24:33;15.47;;;10.13;;
56329;SDS011;42236;48.058;10.632;2023-02-23T04:27:24;14.97;;;9.17;;
56329;SDS011;42236;48.058;10.632;2023-02-23T04:30:10;20.27;;;10.67;;
56329;SDS011;42236;48.058;10.632;2023-02-23T04:32:56;14.53;;;9.67;;
56329;SDS011;42236;48.058;10.632;2023-02-23T04:35:43;20.43;;;9.53;;
56329;SDS011;42236;48.058;10.632;2023-02-23T04:38:32;14.17;;;9.47;;
56329;SDS011;42236;48.058;10.632;2023-02-23T04:41:21;17.70;;;10.33;;
56329;SDS011;42236;48.058;10.632;2023-02-23T04:44:18;14.73;;;9.47;;
56329;SDS011;42236;48.058;10.632;2023-02-23T04:47:03;16.40;;;9.33;;
56329;SDS011;42236;48.058;10.632;2023-02-23T04:49:49;13.30;;;8.70;;
56329;SDS011;42236;48.058;10.632;2023-02-23T04:52:38;19.00;;;10.70;;
56329;SDS011;42236;48.058;10.632;2023-02-23T04:55:24;15.97;;;9.97;;
56329;SDS011;42236;48.058;10.632;2023-02-23T04:58:15;18.03;;;9.50;;
56329;SDS011;42236;48.058;10.632;2023-02-23T05:01:05;14.93;;;8.93;;
56329;SDS011;42236;48.058;10.632;2023-02-23T05:03:53;17.40;;;10.57;;
56329;SDS011;42236;48.058;10.632;2023-02-23T05:06:48;14.93;;;10.00;;
56329;SDS011;42236;48.058;10.632;2023-02-23T05:09:34;20.43;;;11.00;;
56329;SDS011;42236;48.058;10.632;2023-02-23T05:12:20;17.70;;;10.03;;
56329;SDS011;42236;48.058;10.632;2023-02-23T05:15:11;17.50;;;10.90;;
56329;SDS011;42236;48.058;10.632;2023-02-23T05:18:02;17.30;;;10.57;;
56329;SDS011;42236;48.058;10.632;2023-02-23T05:20:59;19.63;;;11.67;;
56329;SDS011;42236;48.058;10.632;2023-02-23T05:23:54;23.57;;;12.00;;
56329;SDS011;42236;48.058;10.632;2023-02-23T05:26:52;17.07;;;10.67;;
56329;SDS011;42236;48.058;10.632;2023-02-23T05:29:44;21.93;;;11.83;;
56329;SDS011;42236;48.058;10.632;2023-02-23T05:32:29;19.10;;;10.90;;
56329;SDS011;42236;48.058;10.632;2023-02-23T05:35:15;17.83;;;10.17;;
56329;SDS011;42236;48.058;10.632;2023-02-23T05:38:01;20.17;;;10.57;;
56329;SDS011;42236;48.058;10.632;2023-02-23T05:40:47;17.50;;;10.20;;
56329;SDS011;42236;48.058;10.632;2023-02-23T05:43:32;16.90;;;9.77;;
56329;SDS011;42236;48.058;10.632;2023-02-23T05:46:24;18.10;;;10.73;;
56329;SDS011;42236;48.058;10.632;2023-02-23T05:49:13;14.70;;;9.20;;
56329;SDS011;42236;48.058;10.632;2023-02-23T05:52:03;17.70;;;10.80;;
56329;SDS011;42236;48.058;10.632;2023-02-23T05:54:49;18.63;;;10.73;;
56329;SDS011;42236;48.058;10.632;2023-02-23T05:57:34;19.93;;;11.03;;
56329;SDS011;42236;48.058;10.632;2023-02-23T06:00:27;16.80;;;9.83;;
56329;SDS011;42236;48.058;10.632;2023-02-23T06:03:15;14.33;;;9.83;;
56329;SDS011;42236;48.058;10.632;2023-02-23T06:06:01;19.80;;;9.30;;
56329;SDS011;42236;48.058;10.632;2023-02-23T06:08:47;16.97;;;10.03;;
56329;SDS011;42236;48.058;10.632;2023-02-23T06:11:38;16.30;;;10.33;;
56329;SDS011;42236;48.058;10.632;2023-02-23T06:14:23;16.57;;;10.30;;
56329;SDS011;42236;48.058;10.632;2023-02-23T06:17:16;16.60;;;9.77;;
56329;SDS011;42236;48.058;10.632;2023-02-23T06:20:05;16.40;;;9.07;;
56329;SDS011;42236;48.058;10.632;2023-02-23T06:22:51;17.93;;;9.90;;
56329;SDS011;42236;48.058;10.632;2023-02-23T06:25:37;18.60;;;9.77;;
56329;SDS011;42236;48.058;10.632;2023-02-23T06:28:23;16.97;;;10.00;;
56329;SDS011;42236;48.058;10.632;2023-02-23T06:31:08;16.40;;;9.53;;
56329;SDS011;42236;48.058;10.632;2023-02-23T06:33:54;16.90;;;9.93;;
56329;SDS011;42236;48.058;10.632;2023-02-23T06:36:53;15.03;;;9.50;;
56329;SDS011;42236;48.058;10.632;2023-02-23T06:39:39;14.83;;;9.83;;
56329;SDS011;42236;48.058;10.632;2023-02-23T06:42:28;16.67;;;9.80;;
56329;SDS011;42236;48.058;10.632;2023-02-23T06:45:22;16.67;;;8.90;;
56329;SDS011;42236;48.058;10.632;2023-02-23T06:48:08;16.03;;;9.87;;
56329;SDS011;42236;48.058;10.632;2023-02-23T06:50:57;15.57;;;8.90;;
56329;SDS011;42236;48.058;10.632;2023-02-23T06:53:44;16.00;;;10.13;;
56329;SDS011;42236;48.058;10.632;2023-02-23T06:56:30;20.57;;;10.37;;
56329;SDS011;42236;48.058;10.632;2023-02-23T06:59:18;18.50;;;10.30;;
56329;SDS011;42236;48.058;10.632;2023-02-23T07:02:04;17.80;;;10.87;;
56329;SDS011;42236;48.058;10.632;2023-02-23T07:04:50;16.87;;;10.20;;
56329;SDS011;42236;48.058;10.632;2023-02-23T07:07:38;15.90;;;10.10;;
56329;SDS011;42236;48.058;10.632;2023-02-23T07:10:24;17.13;;;10.40;;
56329;SDS011;42236;48.058;10.632;2023-02-23T07:13:10;15.53;;;10.03;;
56329;SDS011;42236;48.058;10.632;2023-02-23T07:15:59;17.70;;;9.83;;
56329;SDS011;42236;48.058;10.632;2023-02-23T07:18:44;16.73;;;9.20;;
56329;SDS011;42236;48.058;10.632;2023-02-23T07:21:30;14.27;;;9.17;;
56329;SDS011;42236;48.058;10.632;2023-02-23T07:24:19;17.37;;;9.80;;
56329;SDS011;42236;48.058;10.632;2023-02-23T07:27:07;18.83;;;10.97;;
56329;SDS011;42236;48.058;10.632;2023-02-23T07:29:53;17.83;;;10.90;;
56329;SDS011;42236;48.058;10.632;2023-02-23T07:32:39;15.83;;;9.30;;
56329;SDS011;42236;48.058;10.632;2023-02-23T07:35:25;14.00;;;9.47;;
56329;SDS011;42236;48.058;10.632;2023-02-23T07:38:11;17.90;;;10.50;;
56329;SDS011;42236;48.058;10.632;2023-02-23T07:40:57;16.47;;;10.53;;
56329;SDS011;42236;48.058;10.632;2023-02-23T07:43:43;19.47;;;10.50;;
56329;SDS011;42236;48.058;10.632;2023-02-23T07:46:29;13.73;;;9.47;;
56329;SDS011;42236;48.058;10.632;2023-02-23T07:49:15;15.37;;;9.40;;
56329;SDS011;42236;48.058;10.632;2023-02-23T07:52:00;14.93;;;8.83;;
56329;SDS011;42236;48.058;10.632;2023-02-23T07:54:46;14.47;;;8.90;;
56329;SDS011;42236;48.058;10.632;2023-02-23T07:57:32;15.47;;;8.57;;
56329;SDS011;42236;48.058;10.632;2023-02-23T08:00:18;18.13;;;9.70;;
56329;SDS011;42236;48.058;10.632;2023-02-23T08:03:04;14.63;;;8.90;;
56329;SDS011;42236;48.058;10.632;2023-02-23T08:05:51;14.50;;;8.43;;
56329;SDS011;42236;48.058;10.632;2023-02-23T08:08:37;10.43;;;7.13;;
56329;SDS011;42236;48.058;10.632;2023-02-23T08:11:22;12.60;;;7.35;;
56329;SDS011;42236;48.058;10.632;2023-02-23T08:14:08;10.43;;;6.57;;
56329;SDS011;42236;48.058;10.632;2023-02-23T08:16:54;10.67;;;6.37;;
56329;SDS011;42236;48.058;10.632;2023-02-23T08:19:40;9.87;;;6.57;;
56329;SDS011;42236;48.058;10.632;2023-02-23T08:22:26;9.40;;;6.60;;
56329;SDS011;42236;48.058;10.632;2023-02-23T08:25:11;8.57;;;5.43;;
56329;SDS011;42236;48.058;10.632;2023-02-23T08:27:57;8.67;;;5.60;;
56329;SDS011;42236;48.058;10.632;2023-02-23T08:30:48;14.50;;;5.63;;
56329;SDS011;42236;48.058;10.632;2023-02-23T08:33:34;5.90;;;4.70;;
56329;SDS011;42236;48.058;10.632;2023-02-23T08:36:20;9.77;;;5.90;;
56329;SDS011;42236;48.058;10.632;2023-02-23T08:39:06;8.87;;;5.27;;
56329;SDS011;42236;48.058;10.632;2023-02-23T08:41:54;8.45;;;5.22;;
56329;SDS011;42236;48.058;10.632;2023-02-23T08:44:39;7.47;;;5.10;;
56329;SDS011;42236;48.058;10.632;2023-02-23T08:47:25;8.87;;;5.00;;
56329;SDS011;42236;48.058;10.632;2023-02-23T08:50:12;5.87;;;4.23;;
56329;SDS011;42236;48.058;10.632;2023-02-23T08:52:58;7.40;;;5.18;;
56329;SDS011;42236;48.058;10.632;2023-02-23T08:55:44;7.90;;;4.47;;
56329;SDS011;42236;48.058;10.632;2023-02-23T08:58:30;6.93;;;4.37;;
56329;SDS011;42236;48.058;10.632;2023-02-23T09:01:17;6.23;;;4.37;;
56329;SDS011;42236;48.058;10.632;2023-02-23T09:04:06;8.57;;;4.83;;
56329;SDS011;42236;48.058;10.632;2023-02-23T09:06:51;7.50;;;5.15;;
56329;SDS011;42236;48.058;10.632;2023-02-23T09:09:37;7.17;;;4.23;;
56329;SDS011;42236;48.058;10.632;2023-02-23T09:12:23;8.37;;;4.03;;
56329;SDS011;42236;48.058;10.632;2023-02-23T09:15:09;6.15;;;4.13;;
56329;SDS011;42236;48.058;10.632;2023-02-23T09:18:00;7.20;;;4.10;;
56329;SDS011;42236;48.058;10.632;2023-02-23T09:20:46;6.30;;;3.55;;
56329;SDS011;42236;48.058;10.632;2023-02-23T09:23:35;5.23;;;3.80;;
56329;SDS011;42236;48.058;10.632;2023-02-23T09:26:22;6.80;;;3.97;;
56329;SDS011;42236;48.058;10.632;2023-02-23T09:29:08;5.67;;;3.43;;
56329;SDS011;42236;48.058;10.632;2023-02-23T09:31:54;6.57;;;2.53;;
56329;SDS011;42236;48.058;10.632;2023-02-23T09:34:43;3.37;;;2.47;;
56329;SDS011;42236;48.058;10.632;2023-02-23T09:37:32;6.97;;;3.08;;
56329;SDS011;42236;48.058;10.632;2023-02-23T09:40:22;8.43;;;2.50;;
56329;SDS011;42236;48.058;10.632;2023-02-23T09:43:11;7.63;;;2.60;;
56329;SDS011;42236;48.058;10.632;2023-02-23T09:48:52;2.80;;;2.15;;
56329;SDS011;42236;48.058;10.632;2023-02-23T09:51:43;3.97;;;2.30;;
56329;SDS011;42236;48.058;10.632;2023-02-23T09:54:36;5.07;;;2.30;;
56329;SDS011;42236;48.058;10.632;2023-02-23T09:57:25;3.20;;;2.07;;
56329;SDS011;42236;48.058;10.632;2023-02-23T10:00:22;4.10;;;2.20;;
56329;SDS011;42236;48.058;10.632;2023-02-23T10:03:15;2.97;;;1.90;;
56329;SDS011;42236;48.058;10.632;2023-02-23T10:06:06;5.07;;;1.87;;
56329;SDS011;42236;48.058;10.632;2023-02-23T10:09:08;2.80;;;1.60;;
56329;SDS011;42236;48.058;10.632;2023-02-23T10:12:07;5.10;;;1.70;;
56329;SDS011;42236;48.058;10.632;2023-02-23T10:15:10;4.00;;;1.48;;
56329;SDS011;42236;48.058;10.632;2023-02-23T10:21:11;3.47;;;1.92;;
56329;SDS011;42236;48.058;10.632;2023-02-23T10:24:04;3.42;;;1.52;;
56329;SDS011;42236;48.058;10.632;2023-02-23T10:27:03;3.58;;;1.77;;
56329;SDS011;42236;48.058;10.632;2023-02-23T10:30:03;4.78;;;1.55;;
56329;SDS011;42236;48.058;10.632;2023-02-23T10:39:53;3.40;;;1.65;;
56329;SDS011;42236;48.058;10.632;2023-02-23T10:42:41;4.78;;;1.75;;
56329;SDS011;42236;48.058;10.632;2023-02-23T10:45:28;4.47;;;1.25;;
56329;SDS011;42236;48.058;10.632;2023-02-23T10:48:22;2.92;;;1.42;;
56329;SDS011;42236;48.058;10.632;2023-02-23T10:51:16;2.30;;;1.38;;
56329;SDS011;42236;48.058;10.632;2023-02-23T10:54:39;2.65;;;1.30;;
56329;SDS011;42236;48.058;10.632;2023-02-23T10:57:42;3.40;;;1.88;;
56329;SDS011;42236;48.058;10.632;2023-02-23T11:00:46;6.32;;;1.75;;
56329;SDS011;42236;48.058;10.632;2023-02-23T11:03:54;6.72;;;1.70;;
56329;SDS011;42236;48.058;10.632;2023-02-23T11:07:17;3.25;;;1.70;;
56329;SDS011;42236;48.058;10.632;2023-02-23T11:10:24;2.22;;;1.40;;
56329;SDS011;42236;48.058;10.632;2023-02-23T11:13:21;4.95;;;1.40;;
56329;SDS011;42236;48.058;10.632;2023-02-23T11:16:12;3.03;;;1.15;;
56329;SDS011;42236;48.058;10.632;2023-02-23T11:19:18;2.85;;;1.50;;
56329;SDS011;42236;48.058;10.632;2023-02-23T11:22:17;7.35;;;2.15;;
56329;SDS011;42236;48.058;10.632;2023-02-23T11:32:12;7.32;;;1.92;;
56329;SDS011;42236;48.058;10.632;2023-02-23T11:42:42;3.47;;;1.35;;
56329;SDS011;42236;48.058;10.632;2023-02-23T11:45:57;1.35;;;1.25;;
56329;SDS011;42236;48.058;10.632;2023-02-23T11:49:04;3.30;;;1.70;;
56329;SDS011;42236;48.058;10.632;2023-02-23T11:52:03;2.42;;;1.13;;
56329;SDS011;42236;48.058;10.632;2023-02-23T12:02:58;4.00;;;1.15;;
56329;SDS011;42236;48.058;10.632;2023-02-23T12:20:45;4.45;;;1.15;;
56329;SDS011;42236;48.058;10.632;2023-02-23T12:27:37;4.65;;;0.90;;
56329;SDS011;42236;48.058;10.632;2023-02-23T12:30:54;1.98;;;1.00;;
56329;SDS011;42236;48.058;10.632;2023-02-23T12:41:17;2.25;;;0.90;;
56329;SDS011;42236;48.058;10.632;2023-02-23T12:44:19;1.50;;;0.98;;
56329;SDS011;42236;48.058;10.632;2023-02-23T12:54:24;1.85;;;0.80;;
56329;SDS011;42236;48.058;10.632;2023-02-23T12:57:23;3.38;;;0.90;;
56329;SDS011;42236;48.058;10.632;2023-02-23T13:30:52;1.88;;;1.25;;
56329;SDS011;42236;48.058;10.632;2023-02-23T13:34:34;1.75;;;0.70;;
56329;SDS011;42236;48.058;10.632;2023-02-23T13:41:03;8.13;;;1.33;;
56329;SDS011;42236;48.058;10.632;2023-02-23T13:44:00;7.82;;;1.20;;
56329;SDS011;42236;48.058;10.632;2023-02-23T13:57:36;6.65;;;1.33;;
56329;SDS011;42236;48.058;10.632;2023-02-23T14:04:03;2.85;;;0.80;;
56329;SDS011;42236;48.058;10.632;2023-02-23T14:10:40;2.85;;;1.20;;
56329;SDS011;42236;48.058;10.632;2023-02-23T14:20:13;2.20;;;1.10;;
56329;SDS011;42236;48.058;10.632;2023-02-23T14:27:41;2.38;;;1.25;;
56329;SDS011;42236;48.058;10.632;2023-02-23T15:05:25;3.70;;;1.38;;
56329;SDS011;42236;48.058;10.632;2023-02-23T15:27:15;4.63;;;1.33;;
56329;SDS011;42236;48.058;10.632;2023-02-23T15:33:21;2.53;;;1.70;;
56329;SDS011;42236;48.058;10.632;2023-02-23T15:39:37;5.50;;;1.67;;
56329;SDS011;42236;48.058;10.632;2023-02-23T15:57:32;7.05;;;3.40;;
56329;SDS011;42236;48.058;10.632;2023-02-23T16:00:49;6.57;;;2.78;;
56329;SDS011;42236;48.058;10.632;2023-02-23T16:03:40;4.22;;;2.65;;
56329;SDS011;42236;48.058;10.632;2023-02-23T16:06:52;5.45;;;3.25;;
56329;SDS011;42236;48.058;10.632;2023-02-23T16:10:03;6.50;;;3.20;;
56329;SDS011;42236;48.058;10.632;2023-02-23T16:13:16;5.75;;;3.50;;
56329;SDS011;42236;48.058;10.632;2023-02-23T16:16:35;10.00;;;5.03;;
56329;SDS011;42236;48.058;10.632;2023-02-23T16:20:30;8.35;;;5.20;;
56329;SDS011;42236;48.058;10.632;2023-02-23T16:23:37;8.00;;;4.63;;
56329;SDS011;42236;48.058;10.632;2023-02-23T16:26:54;12.50;;;6.38;;
56329;SDS011;42236;48.058;10.632;2023-02-23T16:29:55;14.30;;;8.18;;
56329;SDS011;42236;48.058;10.632;2023-02-23T16:32:44;19.92;;;7.65;;
56329;SDS011;42236;48.058;10.632;2023-02-23T16:35:50;13.13;;;5.97;;
56329;SDS011;42236;48.058;10.632;2023-02-23T16:39:00;6.32;;;3.95;;
56329;SDS011;42236;48.058;10.632;2023-02-23T16:41:55;6.03;;;4.28;;
56329;SDS011;42236;48.058;10.632;2023-02-23T16:48:04;6.65;;;2.70;;
56329;SDS011;42236;48.058;10.632;2023-02-23T16:50:58;7.28;;;3.30;;
56329;SDS011;42236;48.058;10.632;2023-02-23T16:54:02;7.85;;;3.60;;
56329;SDS011;42236;48.058;10.632;2023-02-23T16:57:09;6.47;;;3.67;;
56329;SDS011;42236;48.058;10.632;2023-02-23T17:00:25;8.38;;;3.92;;
56329;SDS011;42236;48.058;10.632;2023-02-23T17:03:54;6.55;;;4.25;;
56329;SDS011;42236;48.058;10.632;2023-02-23T17:06:46;11.98;;;6.03;;
56329;SDS011;42236;48.058;10.632;2023-02-23T17:09:45;9.75;;;5.75;;
56329;SDS011;42236;48.058;10.632;2023-02-23T17:12:32;12.85;;;5.93;;
56329;SDS011;42236;48.058;10.632;2023-02-23T17:15:20;10.40;;;6.68;;
56329;SDS011;42236;48.058;10.632;2023-02-23T17:18:07;10.77;;;7.22;;
56329;SDS011;42236;48.058;10.632;2023-02-23T17:20:53;15.23;;;7.05;;
56329;SDS011;42236;48.058;10.632;2023-02-23T17:23:40;15.30;;;7.22;;
56329;SDS011;42236;48.058;10.632;2023-02-23T17:26:35;9.23;;;5.50;;
56329;SDS011;42236;48.058;10.632;2023-02-23T17:29:20;11.40;;;6.07;;
56329;SDS011;42236;48.058;10.632;2023-02-23T17:32:06;13.27;;;8.17;;
56329;SDS011;42236;48.058;10.632;2023-02-23T17:34:52;10.50;;;6.77;;
56329;SDS011;42236;48.058;10.632;2023-02-23T17:37:38;8.90;;;6.72;;
56329;SDS011;42236;48.058;10.632;2023-02-23T17:40:24;10.27;;;6.40;;
56329;SDS011;42236;48.058;10.632;2023-02-23T17:43:12;16.17;;;8.20;;
56329;SDS011;42236;48.058;10.632;2023-02-23T17:45:58;13.37;;;7.97;;
56329;SDS011;42236;48.058;10.632;2023-02-23T17:48:44;11.65;;;8.63;;
56329;SDS011;42236;48.058;10.632;2023-02-23T17:51:31;19.17;;;9.27;;
56329;SDS011;42236;48.058;10.632;2023-02-23T17:54:17;15.77;;;8.97;;
56329;SDS011;42236;48.058;10.632;2023-02-23T17:57:02;19.07;;;10.77;;
56329;SDS011;42236;48.058;10.632;2023-02-23T17:59:48;20.80;;;12.10;;
56329;SDS011;42236;48.058;10.632;2023-02-23T18:02:34;23.33;;;14.00;;
56329;SDS011;42236;48.058;10.632;2023-02-23T18:05:20;18.88;;;11.90;;
56329;SDS011;42236;48.058;10.632;2023-02-23T18:08:05;14.90;;;8.98;;
56329;SDS011;42236;48.058;10.632;2023-02-23T18:10:51;17.10;;;8.63;;
56329;SDS011;42236;48.058;10.632;2023-02-23T18:13:38;16.87;;;7.97;;
56329;SDS011;42236;48.058;10.632;2023-02-23T18:16:24;21.30;;;9.87;;
56329;SDS011;42236;48.058;10.632;2023-02-23T18:19:10;20.83;;;13.87;;
56329;SDS011;42236;48.058;10.632;2023-02-23T18:21:55;23.58;;;17.40;;
56329;SDS011;42236;48.058;10.632;2023-02-23T18:24:41;25.10;;;17.37;;
56329;SDS011;42236;48.058;10.632;2023-02-23T18:27:27;27.50;;;17.67;;
56329;SDS011;42236;48.058;10.632;2023-02-23T18:30:13;27.33;;;17.77;;
56329;SDS011;42236;48.058;10.632;2023-02-23T18:32:59;26.60;;;17.50;;
56329;SDS011;42236;48.058;10.632;2023-02-23T18:35:44;34.87;;;19.57;;
56329;SDS011;42236;48.058;10.632;2023-02-23T18:38:30;35.07;;;21.97;;
56329;SDS011;42236;48.058;10.632;2023-02-23T18:41:16;33.15;;;21.45;;
56329;SDS011;42236;48.058;10.632;2023-02-23T18:44:04;51.37;;;26.73;;
56329;SDS011;42236;48.058;10.632;2023-02-23T18:46:52;18.67;;;11.97;;
56329;SDS011;42236;48.058;10.632;2023-02-23T18:49:39;8.17;;;4.70;;
56329;SDS011;42236;48.058;10.632;2023-02-23T18:52:25;10.33;;;5.00;;
56329;SDS011;42236;48.058;10.632;2023-02-23T18:55:12;7.27;;;4.20;;
56329;SDS011;42236;48.058;10.632;2023-02-23T18:57:58;4.27;;;3.13;;
56329;SDS011;42236;48.058;10.632;2023-02-23T19:00:44;6.57;;;4.33;;
56329;SDS011;42236;48.058;10.632;2023-02-23T19:03:30;13.83;;;4.33;;
56329;SDS011;42236;48.058;10.632;2023-02-23T19:06:16;8.00;;;4.83;;
56329;SDS011;42236;48.058;10.632;2023-02-23T19:09:03;7.07;;;4.43;;
56329;SDS011;42236;48.058;10.632;2023-02-23T19:11:57;10.63;;;4.47;;
56329;SDS011;42236;48.058;10.632;2023-02-23T19:14:43;6.63;;;4.10;;
56329;SDS011;42236;48.058;10.632;2023-02-23T19:17:29;7.40;;;4.60;;
56329;SDS011;42236;48.058;10.632;2023-02-23T19:20:14;5.80;;;3.73;;
56329;SDS011;42236;48.058;10.632;2023-02-23T19:23:01;5.97;;;4.23;;
56329;SDS011;42236;48.058;10.632;2023-02-23T19:25:53;11.73;;;5.63;;
56329;SDS011;42236;48.058;10.632;2023-02-23T19:28:39;9.63;;;5.27;;
56329;SDS011;42236;48.058;10.632;2023-02-23T19:31:25;10.10;;;7.30;;
56329;SDS011;42236;48.058;10.632;2023-02-23T19:34:16;8.97;;;6.07;;
56329;SDS011;42236;48.058;10.632;2023-02-23T19:37:02;9.67;;;6.80;;
56329;SDS011;42236;48.058;10.632;2023-02-23T19:39:47;10.07;;;6.97;;
56329;SDS011;42236;48.058;10.632;2023-02-23T19:42:38;12.47;;;6.33;;
56329;SDS011;42236;48.058;10.632;2023-02-23T19:45:27;9.17;;;6.40;;
56329;SDS011;42236;48.058;10.632;2023-02-23T19:48:14;9.97;;;6.57;;
56329;SDS011;42236;48.058;10.632;2023-02-23T19:51:00;15.67;;;6.80;;
56329;SDS011;42236;48.058;10.632;2023-02-23T19:53:46;10.43;;;6.20;;
56329;SDS011;42236;48.058;10.632;2023-02-23T19:56:32;13.67;;;7.37;;
56329;SDS011;42236;48.058;10.632;2023-02-23T19:59:18;13.50;;;7.50;;
56329;SDS011;42236;48.058;10.632;2023-02-23T20:02:04;19.57;;;8.83;;
56329;SDS011;42236;48.058;10.632;2023-02-23T20:04:50;12.57;;;7.20;;
56329;SDS011;42236;48.058;10.632;2023-02-23T20:07:36;10.10;;;5.70;;
56329;SDS011;42236;48.058;10.632;2023-02-23T20:10:22;11.37;;;4.97;;
56329;SDS011;42236;48.058;10.632;2023-02-23T20:13:13;10.07;;;6.87;;
56329;SDS011;42236;48.058;10.632;2023-02-23T20:15:59;20.20;;;12.07;;
56329;SDS011;42236;48.058;10.632;2023-02-23T20:18:55;21.00;;;13.00;;
56329;SDS011;42236;48.058;10.632;2023-02-23T20:21:42;26.70;;;14.70;;
56329;SDS011;42236;48.058;10.632;2023-02-23T20:24:28;21.47;;;11.17;;
56329;SDS011;42236;48.058;10.632;2023-02-23T20:27:14;13.87;;;9.13;;
56329;SDS011;42236;48.058;10.632;2023-02-23T20:30:00;14.07;;;8.73;;
56329;SDS011;42236;48.058;10.632;2023-02-23T20:32:46;14.40;;;9.47;;
56329;SDS011;42236;48.058;10.632;2023-02-23T20:35:33;14.90;;;8.53;;
56329;SDS011;42236;48.058;10.632;2023-02-23T20:38:19;11.03;;;7.50;;
56329;SDS011;42236;48.058;10.632;2023-02-23T20:41:04;12.57;;;7.23;;
56329;SDS011;42236;48.058;10.632;2023-02-23T20:43:50;11.67;;;6.90;;
56329;SDS011;42236;48.058;10.632;2023-02-23T20:46:36;10.80;;;6.73;;
56329;SDS011;42236;48.058;10.632;2023-02-23T20:49:24;14.40;;;7.73;;
56329;SDS011;42236;48.058;10.632;2023-02-23T20:52:14;11.03;;;6.47;;
56329;SDS011;42236;48.058;10.632;2023-02-23T20:55:03;13.50;;;6.97;;